sensor_id;sensor_type;location;lat;lon;timestamp;temperature;humidity
50013;DHT22;35901;48.694;9.476;2024-01-25T00:01:17;7.90;99.90
50013;DHT22;35901;48.694;9.476;2024-01-25T00:03:43;7.90;99.90
50013;DHT22;35901;48.694;9.476;2024-01-25T00:06:09;7.90;99.90
50013;DHT22;35901;48.694;9.476;2024-01-25T00:08:35;7.90;99.90
50013;DHT22;35901;48.694;9.476;2024-01-25T00:11:04;7.90;99.90
50013;DHT22;35901;48.694;9.476;2024-01-25T00:13:30;7.90;99.90
50013;DHT22;35901;48.694;9.476;2024-01-25T00:15:56;7.90;99.90
50013;DHT22;35901;48.694;9.476;2024-01-25T00:18:22;7.90;99.90
50013;DHT22;35901;48.694;9.476;2024-01-25T00:20:48;7.90;99.90
50013;DHT22;35901;48.694;9.476;2024-01-25T00:23:14;7.90;99.90
50013;DHT22;35901;48.694;9.476;2024-01-25T00:25:40;7.80;99.90
50013;DHT22;35901;48.694;9.476;2024-01-25T00:28:05;7.80;99.90
50013;DHT22;35901;48.694;9.476;2024-01-25T00:30:31;7.80;99.90
50013;DHT22;35901;48.694;9.476;2024-01-25T00:32:57;7.90;99.90
50013;DHT22;35901;48.694;9.476;2024-01-25T00:35:24;7.90;99.90
50013;DHT22;35901;48.694;9.476;2024-01-25T00:37:50;7.80;99.90
50013;DHT22;35901;48.694;9.476;2024-01-25T00:40:16;7.80;99.90
50013;DHT22;35901;48.694;9.476;2024-01-25T00:42:45;7.80;99.90
50013;DHT22;35901;48.694;9.476;2024-01-25T00:45:21;7.90;99.90
50013;DHT22;35901;48.694;9.476;2024-01-25T00:47:47;7.90;99.90
50013;DHT22;35901;48.694;9.476;2024-01-25T00:50:13;7.90;99.90
50013;DHT22;35901;48.694;9.476;2024-01-25T00:52:39;7.90;99.90
50013;DHT22;35901;48.694;9.476;2024-01-25T00:55:07;7.90;99.90
50013;DHT22;35901;48.694;9.476;2024-01-25T00:57:33;7.90;99.90
50013;DHT22;35901;48.694;9.476;2024-01-25T00:59:59;7.90;99.90
50013;DHT22;35901;48.694;9.476;2024-01-25T01:02:26;7.90;99.90
50013;DHT22;35901;48.694;9.476;2024-01-25T01:04:57;7.90;99.90
50013;DHT22;35901;48.694;9.476;2024-01-25T01:07:23;7.80;99.90
50013;DHT22;35901;48.694;9.476;2024-01-25T01:09:49;7.80;99.90
50013;DHT22;35901;48.694;9.476;2024-01-25T01:12:15;7.80;99.90
50013;DHT22;35901;48.694;9.476;2024-01-25T01:14:44;7.80;99.90
50013;DHT22;35901;48.694;9.476;2024-01-25T01:17:10;7.80;99.90
50013;DHT22;35901;48.694;9.476;2024-01-25T01:19:36;7.70;99.90
50013;DHT22;35901;48.694;9.476;2024-01-25T01:22:01;7.70;99.90
50013;DHT22;35901;48.694;9.476;2024-01-25T01:24:27;7.70;99.90
50013;DHT22;35901;48.694;9.476;2024-01-25T01:26:53;7.70;99.90
50013;DHT22;35901;48.694;9.476;2024-01-25T01:29:18;7.70;99.90
50013;DHT22;35901;48.694;9.476;2024-01-25T01:31:45;7.70;99.90
50013;DHT22;35901;48.694;9.476;2024-01-25T01:34:11;7.70;99.90
50013;DHT22;35901;48.694;9.476;2024-01-25T01:36:40;7.70;99.90
50013;DHT22;35901;48.694;9.476;2024-01-25T01:39:05;7.70;99.90
50013;DHT22;35901;48.694;9.476;2024-01-25T01:41:34;7.80;99.90
50013;DHT22;35901;48.694;9.476;2024-01-25T01:44:00;7.80;99.90
50013;DHT22;35901;48.694;9.476;2024-01-25T01:49:00;7.80;99.90
50013;DHT22;35901;48.694;9.476;2024-01-25T01:51:26;7.90;99.90
50013;DHT22;35901;48.694;9.476;2024-01-25T01:53:53;7.80;99.90
50013;DHT22;35901;48.694;9.476;2024-01-25T01:56:20;7.80;99.90
50013;DHT22;35901;48.694;9.476;2024-01-25T01:58:47;7.80;99.90
50013;DHT22;35901;48.694;9.476;2024-01-25T02:01:14;7.80;99.90
50013;DHT22;35901;48.694;9.476;2024-01-25T02:03:39;7.90;99.90
50013;DHT22;35901;48.694;9.476;2024-01-25T02:06:06;7.90;99.90
50013;DHT22;35901;48.694;9.476;2024-01-25T02:08:32;7.90;99.90
50013;DHT22;35901;48.694;9.476;2024-01-25T02:10:58;7.90;99.90
50013;DHT22;35901;48.694;9.476;2024-01-25T02:13:24;7.90;99.90
50013;DHT22;35901;48.694;9.476;2024-01-25T02:15:49;7.90;99.90
50013;DHT22;35901;48.694;9.476;2024-01-25T02:18:15;7.80;99.90
50013;DHT22;35901;48.694;9.476;2024-01-25T02:20:41;7.80;99.90
50013;DHT22;35901;48.694;9.476;2024-01-25T02:27:59;8.00;99.90
50013;DHT22;35901;48.694;9.476;2024-01-25T02:30:24;8.10;99.90
50013;DHT22;35901;48.694;9.476;2024-01-25T02:32:50;8.10;99.90
50013;DHT22;35901;48.694;9.476;2024-01-25T02:35:16;8.10;99.90
50013;DHT22;35901;48.694;9.476;2024-01-25T02:37:42;8.10;99.90
50013;DHT22;35901;48.694;9.476;2024-01-25T02:40:08;8.10;99.90
50013;DHT22;35901;48.694;9.476;2024-01-25T02:42:33;8.10;99.90
50013;DHT22;35901;48.694;9.476;2024-01-25T02:44:59;8.20;99.90
50013;DHT22;35901;48.694;9.476;2024-01-25T02:47:25;8.20;99.90
50013;DHT22;35901;48.694;9.476;2024-01-25T02:49:51;8.20;99.90
50013;DHT22;35901;48.694;9.476;2024-01-25T02:52:17;8.20;99.90
50013;DHT22;35901;48.694;9.476;2024-01-25T02:54:43;8.20;99.90
50013;DHT22;35901;48.694;9.476;2024-01-25T02:57:13;8.10;99.90
50013;DHT22;35901;48.694;9.476;2024-01-25T02:59:48;8.10;99.90
50013;DHT22;35901;48.694;9.476;2024-01-25T03:02:19;8.00;99.90
50013;DHT22;35901;48.694;9.476;2024-01-25T03:04:48;8.00;99.90
50013;DHT22;35901;48.694;9.476;2024-01-25T03:07:16;7.90;99.90
50013;DHT22;35901;48.694;9.476;2024-01-25T03:09:45;7.90;99.90
50013;DHT22;35901;48.694;9.476;2024-01-25T03:12:15;7.90;99.90
50013;DHT22;35901;48.694;9.476;2024-01-25T03:14:44;7.90;99.90
50013;DHT22;35901;48.694;9.476;2024-01-25T03:17:10;7.90;99.90
50013;DHT22;35901;48.694;9.476;2024-01-25T03:19:37;7.90;99.90
50013;DHT22;35901;48.694;9.476;2024-01-25T03:22:03;7.90;99.90
50013;DHT22;35901;48.694;9.476;2024-01-25T03:24:29;8.00;99.90
50013;DHT22;35901;48.694;9.476;2024-01-25T03:26:54;8.00;99.90
50013;DHT22;35901;48.694;9.476;2024-01-25T03:29:20;8.00;99.90
50013;DHT22;35901;48.694;9.476;2024-01-25T03:31:46;8.00;99.90
50013;DHT22;35901;48.694;9.476;2024-01-25T03:34:12;8.10;99.90
50013;DHT22;35901;48.694;9.476;2024-01-25T03:36:40;8.10;99.90
50013;DHT22;35901;48.694;9.476;2024-01-25T03:39:06;8.20;99.90
50013;DHT22;35901;48.694;9.476;2024-01-25T03:41:32;8.20;99.90
50013;DHT22;35901;48.694;9.476;2024-01-25T03:44:02;8.30;99.90
50013;DHT22;35901;48.694;9.476;2024-01-25T03:46:31;8.30;99.90
50013;DHT22;35901;48.694;9.476;2024-01-25T03:49:07;8.40;99.90
50013;DHT22;35901;48.694;9.476;2024-01-25T03:51:34;8.40;99.90
50013;DHT22;35901;48.694;9.476;2024-01-25T03:54:00;8.30;99.90
50013;DHT22;35901;48.694;9.476;2024-01-25T03:56:26;8.40;99.90
50013;DHT22;35901;48.694;9.476;2024-01-25T03:58:52;8.40;99.90
50013;DHT22;35901;48.694;9.476;2024-01-25T04:01:20;8.50;99.90
50013;DHT22;35901;48.694;9.476;2024-01-25T04:03:47;8.50;99.90
50013;DHT22;35901;48.694;9.476;2024-01-25T04:06:13;8.50;99.90
50013;DHT22;35901;48.694;9.476;2024-01-25T04:08:39;8.50;99.90
50013;DHT22;35901;48.694;9.476;2024-01-25T04:11:10;8.50;99.90
50013;DHT22;35901;48.694;9.476;2024-01-25T04:13:36;8.50;99.90
50013;DHT22;35901;48.694;9.476;2024-01-25T04:16:02;8.50;99.90
50013;DHT22;35901;48.694;9.476;2024-01-25T04:18:28;8.40;99.90
50013;DHT22;35901;48.694;9.476;2024-01-25T04:20:53;8.40;99.90
50013;DHT22;35901;48.694;9.476;2024-01-25T04:23:19;8.30;99.90
50013;DHT22;35901;48.694;9.476;2024-01-25T04:25:45;8.30;99.90
50013;DHT22;35901;48.694;9.476;2024-01-25T04:28:10;8.20;99.90
50013;DHT22;35901;48.694;9.476;2024-01-25T04:30:36;8.20;99.90
50013;DHT22;35901;48.694;9.476;2024-01-25T04:33:02;8.20;99.90
50013;DHT22;35901;48.694;9.476;2024-01-25T04:35:28;8.20;99.90
50013;DHT22;35901;48.694;9.476;2024-01-25T04:37:53;8.20;99.90
50013;DHT22;35901;48.694;9.476;2024-01-25T04:40:19;8.20;99.90
50013;DHT22;35901;48.694;9.476;2024-01-25T04:42:45;8.20;99.90
50013;DHT22;35901;48.694;9.476;2024-01-25T04:45:11;8.20;99.90
50013;DHT22;35901;48.694;9.476;2024-01-25T04:47:38;8.20;99.90
50013;DHT22;35901;48.694;9.476;2024-01-25T04:50:04;8.30;99.90
50013;DHT22;35901;48.694;9.476;2024-01-25T04:52:30;8.30;99.90
50013;DHT22;35901;48.694;9.476;2024-01-25T04:54:56;8.30;99.90
50013;DHT22;35901;48.694;9.476;2024-01-25T04:57:21;8.20;99.90
50013;DHT22;35901;48.694;9.476;2024-01-25T04:59:47;8.20;99.90
50013;DHT22;35901;48.694;9.476;2024-01-25T05:02:12;8.20;99.90
50013;DHT22;35901;48.694;9.476;2024-01-25T05:04:38;8.10;99.90
50013;DHT22;35901;48.694;9.476;2024-01-25T05:07:04;8.10;99.90
50013;DHT22;35901;48.694;9.476;2024-01-25T05:09:29;8.10;99.90
50013;DHT22;35901;48.694;9.476;2024-01-25T05:11:55;8.10;99.90
50013;DHT22;35901;48.694;9.476;2024-01-25T05:14:24;8.00;99.90
50013;DHT22;35901;48.694;9.476;2024-01-25T05:16:50;7.90;99.90
50013;DHT22;35901;48.694;9.476;2024-01-25T05:19:15;7.90;99.90
50013;DHT22;35901;48.694;9.476;2024-01-25T05:21:41;7.80;99.90
50013;DHT22;35901;48.694;9.476;2024-01-25T05:24:07;7.80;99.90
50013;DHT22;35901;48.694;9.476;2024-01-25T05:26:33;7.70;99.90
50013;DHT22;35901;48.694;9.476;2024-01-25T05:28:58;7.70;99.90
50013;DHT22;35901;48.694;9.476;2024-01-25T05:31:24;7.70;99.90
50013;DHT22;35901;48.694;9.476;2024-01-25T05:33:50;7.70;99.90
50013;DHT22;35901;48.694;9.476;2024-01-25T05:36:15;7.60;99.90
50013;DHT22;35901;48.694;9.476;2024-01-25T05:38:41;7.50;99.90
50013;DHT22;35901;48.694;9.476;2024-01-25T05:41:07;7.40;99.90
50013;DHT22;35901;48.694;9.476;2024-01-25T05:43:33;7.30;99.90
50013;DHT22;35901;48.694;9.476;2024-01-25T05:45:59;7.20;99.90
50013;DHT22;35901;48.694;9.476;2024-01-25T05:48:24;7.10;99.90
50013;DHT22;35901;48.694;9.476;2024-01-25T05:50:50;7.00;99.90
50013;DHT22;35901;48.694;9.476;2024-01-25T05:53:16;6.80;99.90
50013;DHT22;35901;48.694;9.476;2024-01-25T05:55:44;6.70;99.90
50013;DHT22;35901;48.694;9.476;2024-01-25T05:58:10;6.60;99.90
50013;DHT22;35901;48.694;9.476;2024-01-25T06:00:35;6.50;99.90
50013;DHT22;35901;48.694;9.476;2024-01-25T06:03:01;6.50;99.90
50013;DHT22;35901;48.694;9.476;2024-01-25T06:05:27;6.50;99.90
50013;DHT22;35901;48.694;9.476;2024-01-25T06:07:52;6.40;99.90
50013;DHT22;35901;48.694;9.476;2024-01-25T06:10:18;6.30;99.90
50013;DHT22;35901;48.694;9.476;2024-01-25T06:12:43;6.20;99.90
50013;DHT22;35901;48.694;9.476;2024-01-25T06:15:09;6.20;99.90
50013;DHT22;35901;48.694;9.476;2024-01-25T06:17:35;6.20;99.90
50013;DHT22;35901;48.694;9.476;2024-01-25T06:20:01;6.20;99.90
50013;DHT22;35901;48.694;9.476;2024-01-25T06:22:28;6.10;99.90
50013;DHT22;35901;48.694;9.476;2024-01-25T06:24:53;6.10;99.90
50013;DHT22;35901;48.694;9.476;2024-01-25T06:27:19;6.00;99.90
50013;DHT22;35901;48.694;9.476;2024-01-25T06:29:44;5.80;99.90
50013;DHT22;35901;48.694;9.476;2024-01-25T06:32:10;5.80;99.90
50013;DHT22;35901;48.694;9.476;2024-01-25T06:34:36;5.70;99.90
50013;DHT22;35901;48.694;9.476;2024-01-25T06:37:01;5.70;99.90
50013;DHT22;35901;48.694;9.476;2024-01-25T06:39:27;5.60;99.90
50013;DHT22;35901;48.694;9.476;2024-01-25T06:41:53;5.50;99.90
50013;DHT22;35901;48.694;9.476;2024-01-25T06:44:18;5.40;99.90
50013;DHT22;35901;48.694;9.476;2024-01-25T06:46:44;5.30;99.90
50013;DHT22;35901;48.694;9.476;2024-01-25T06:49:10;5.20;99.90
50013;DHT22;35901;48.694;9.476;2024-01-25T06:51:35;5.10;99.90
50013;DHT22;35901;48.694;9.476;2024-01-25T06:54:01;5.10;99.90
50013;DHT22;35901;48.694;9.476;2024-01-25T06:56:27;5.00;99.90
50013;DHT22;35901;48.694;9.476;2024-01-25T06:58:52;4.90;99.90
50013;DHT22;35901;48.694;9.476;2024-01-25T07:01:22;4.90;99.90
50013;DHT22;35901;48.694;9.476;2024-01-25T07:03:48;4.90;99.90
50013;DHT22;35901;48.694;9.476;2024-01-25T07:06:16;4.80;99.90
50013;DHT22;35901;48.694;9.476;2024-01-25T07:08:42;4.70;99.90
50013;DHT22;35901;48.694;9.476;2024-01-25T07:11:08;4.60;99.90
50013;DHT22;35901;48.694;9.476;2024-01-25T07:13:33;4.50;99.90
50013;DHT22;35901;48.694;9.476;2024-01-25T07:15:59;4.40;99.90
50013;DHT22;35901;48.694;9.476;2024-01-25T07:18:25;4.20;99.90
50013;DHT22;35901;48.694;9.476;2024-01-25T07:20:50;4.20;99.90
50013;DHT22;35901;48.694;9.476;2024-01-25T07:23:17;4.00;99.90
50013;DHT22;35901;48.694;9.476;2024-01-25T07:25:43;4.10;99.90
50013;DHT22;35901;48.694;9.476;2024-01-25T07:28:08;4.30;99.90
50013;DHT22;35901;48.694;9.476;2024-01-25T07:30:34;4.30;99.90
50013;DHT22;35901;48.694;9.476;2024-01-25T07:33:00;4.50;99.90
50013;DHT22;35901;48.694;9.476;2024-01-25T07:35:26;4.70;99.90
50013;DHT22;35901;48.694;9.476;2024-01-25T07:37:52;5.00;99.90
50013;DHT22;35901;48.694;9.476;2024-01-25T07:40:18;5.20;99.90
50013;DHT22;35901;48.694;9.476;2024-01-25T07:42:43;5.40;99.90
50013;DHT22;35901;48.694;9.476;2024-01-25T07:45:09;5.70;99.90
50013;DHT22;35901;48.694;9.476;2024-01-25T07:47:35;6.00;99.90
50013;DHT22;35901;48.694;9.476;2024-01-25T07:50:01;6.30;99.90
50013;DHT22;35901;48.694;9.476;2024-01-25T07:52:28;6.50;99.90
50013;DHT22;35901;48.694;9.476;2024-01-25T07:54:54;6.80;99.90
50013;DHT22;35901;48.694;9.476;2024-01-25T07:57:19;7.00;99.90
50013;DHT22;35901;48.694;9.476;2024-01-25T07:59:45;7.10;99.90
50013;DHT22;35901;48.694;9.476;2024-01-25T08:02:10;7.30;99.90
50013;DHT22;35901;48.694;9.476;2024-01-25T08:04:36;7.60;99.90
50013;DHT22;35901;48.694;9.476;2024-01-25T08:07:02;7.80;99.90
50013;DHT22;35901;48.694;9.476;2024-01-25T08:09:28;8.10;99.90
50013;DHT22;35901;48.694;9.476;2024-01-25T08:11:54;8.40;99.90
50013;DHT22;35901;48.694;9.476;2024-01-25T08:14:20;8.60;99.90
50013;DHT22;35901;48.694;9.476;2024-01-25T08:16:45;8.80;99.90
50013;DHT22;35901;48.694;9.476;2024-01-25T08:19:11;8.80;99.90
50013;DHT22;35901;48.694;9.476;2024-01-25T08:21:37;8.70;99.90
50013;DHT22;35901;48.694;9.476;2024-01-25T08:24:23;8.60;99.90
50013;DHT22;35901;48.694;9.476;2024-01-25T08:26:49;8.50;99.90
50013;DHT22;35901;48.694;9.476;2024-01-25T08:29:14;8.70;99.90
50013;DHT22;35901;48.694;9.476;2024-01-25T08:31:40;8.80;99.90
50013;DHT22;35901;48.694;9.476;2024-01-25T08:34:06;9.00;99.90
50013;DHT22;35901;48.694;9.476;2024-01-25T08:36:32;9.20;99.90
50013;DHT22;35901;48.694;9.476;2024-01-25T08:38:58;9.20;99.90
50013;DHT22;35901;48.694;9.476;2024-01-25T08:41:24;9.30;99.90
50013;DHT22;35901;48.694;9.476;2024-01-25T08:43:50;9.40;99.90
50013;DHT22;35901;48.694;9.476;2024-01-25T08:46:16;9.60;99.90
50013;DHT22;35901;48.694;9.476;2024-01-25T08:48:42;9.70;99.90
50013;DHT22;35901;48.694;9.476;2024-01-25T08:51:08;9.80;99.90
50013;DHT22;35901;48.694;9.476;2024-01-25T08:53:34;9.90;99.90
50013;DHT22;35901;48.694;9.476;2024-01-25T08:55:59;9.90;99.90
50013;DHT22;35901;48.694;9.476;2024-01-25T08:58:25;9.90;99.90
50013;DHT22;35901;48.694;9.476;2024-01-25T09:00:51;10.00;99.90
50013;DHT22;35901;48.694;9.476;2024-01-25T09:03:17;10.10;99.90
50013;DHT22;35901;48.694;9.476;2024-01-25T09:05:42;10.20;99.90
50013;DHT22;35901;48.694;9.476;2024-01-25T09:08:14;10.20;99.90
50013;DHT22;35901;48.694;9.476;2024-01-25T09:10:41;9.90;99.90
50013;DHT22;35901;48.694;9.476;2024-01-25T09:13:08;9.60;99.90
50013;DHT22;35901;48.694;9.476;2024-01-25T09:15:34;9.50;99.90
50013;DHT22;35901;48.694;9.476;2024-01-25T09:18:00;9.60;99.90
50013;DHT22;35901;48.694;9.476;2024-01-25T09:20:26;9.80;99.90
50013;DHT22;35901;48.694;9.476;2024-01-25T09:22:52;9.90;99.90
50013;DHT22;35901;48.694;9.476;2024-01-25T09:25:20;10.00;99.90
50013;DHT22;35901;48.694;9.476;2024-01-25T09:27:47;10.10;99.90
50013;DHT22;35901;48.694;9.476;2024-01-25T09:30:13;10.10;99.90
50013;DHT22;35901;48.694;9.476;2024-01-25T09:32:39;10.20;99.90
50013;DHT22;35901;48.694;9.476;2024-01-25T09:35:05;10.30;99.90
50013;DHT22;35901;48.694;9.476;2024-01-25T09:37:31;10.40;99.90
50013;DHT22;35901;48.694;9.476;2024-01-25T09:39:57;10.60;99.90
50013;DHT22;35901;48.694;9.476;2024-01-25T09:42:24;10.70;99.90
50013;DHT22;35901;48.694;9.476;2024-01-25T09:44:53;10.80;99.90
50013;DHT22;35901;48.694;9.476;2024-01-25T09:47:21;10.90;99.90
50013;DHT22;35901;48.694;9.476;2024-01-25T09:49:48;11.00;99.90
50013;DHT22;35901;48.694;9.476;2024-01-25T09:52:14;10.90;99.90
50013;DHT22;35901;48.694;9.476;2024-01-25T09:54:42;10.70;99.90
50013;DHT22;35901;48.694;9.476;2024-01-25T09:57:16;10.50;99.90
50013;DHT22;35901;48.694;9.476;2024-01-25T09:59:43;10.60;99.90
50013;DHT22;35901;48.694;9.476;2024-01-25T10:02:10;10.70;99.90
50013;DHT22;35901;48.694;9.476;2024-01-25T10:04:36;10.70;99.90
50013;DHT22;35901;48.694;9.476;2024-01-25T10:07:01;10.70;99.90
50013;DHT22;35901;48.694;9.476;2024-01-25T10:09:27;10.90;99.90
50013;DHT22;35901;48.694;9.476;2024-01-25T10:11:53;11.10;99.90
50013;DHT22;35901;48.694;9.476;2024-01-25T10:14:18;11.20;99.90
50013;DHT22;35901;48.694;9.476;2024-01-25T10:16:47;11.30;99.90
50013;DHT22;35901;48.694;9.476;2024-01-25T10:19:13;11.40;99.90
50013;DHT22;35901;48.694;9.476;2024-01-25T10:21:41;11.50;99.90
50013;DHT22;35901;48.694;9.476;2024-01-25T10:24:06;11.30;99.90
50013;DHT22;35901;48.694;9.476;2024-01-25T10:26:34;11.00;99.90
50013;DHT22;35901;48.694;9.476;2024-01-25T10:29:00;10.80;99.90
50013;DHT22;35901;48.694;9.476;2024-01-25T10:31:27;10.90;99.90
50013;DHT22;35901;48.694;9.476;2024-01-25T10:33:54;11.00;99.90
50013;DHT22;35901;48.694;9.476;2024-01-25T10:36:21;10.70;99.90
50013;DHT22;35901;48.694;9.476;2024-01-25T10:38:48;10.40;99.90
50013;DHT22;35901;48.694;9.476;2024-01-25T10:41:15;10.20;99.90
50013;DHT22;35901;48.694;9.476;2024-01-25T10:43:41;10.20;99.90
50013;DHT22;35901;48.694;9.476;2024-01-25T10:46:07;10.20;99.90
50013;DHT22;35901;48.694;9.476;2024-01-25T10:48:34;10.30;99.90
50013;DHT22;35901;48.694;9.476;2024-01-25T10:51:01;10.30;99.90
50013;DHT22;35901;48.694;9.476;2024-01-25T10:53:32;10.40;99.90
50013;DHT22;35901;48.694;9.476;2024-01-25T10:55:59;10.60;99.90
50013;DHT22;35901;48.694;9.476;2024-01-25T10:58:33;10.70;99.90
50013;DHT22;35901;48.694;9.476;2024-01-25T11:01:01;10.90;99.90
50013;DHT22;35901;48.694;9.476;2024-01-25T11:03:29;10.90;99.90
50013;DHT22;35901;48.694;9.476;2024-01-25T11:06:08;10.70;99.90
50013;DHT22;35901;48.694;9.476;2024-01-25T11:08:35;10.70;99.90
50013;DHT22;35901;48.694;9.476;2024-01-25T11:11:07;10.70;99.90
50013;DHT22;35901;48.694;9.476;2024-01-25T11:13:39;11.10;99.90
50013;DHT22;35901;48.694;9.476;2024-01-25T11:16:31;11.10;99.90
50013;DHT22;35901;48.694;9.476;2024-01-25T11:18:59;11.20;99.90
50013;DHT22;35901;48.694;9.476;2024-01-25T11:21:46;11.70;99.90
50013;DHT22;35901;48.694;9.476;2024-01-25T11:24:37;12.00;99.90
50013;DHT22;35901;48.694;9.476;2024-01-25T11:27:04;12.30;99.90
50013;DHT22;35901;48.694;9.476;2024-01-25T11:29:30;12.70;99.90
50013;DHT22;35901;48.694;9.476;2024-01-25T11:31:56;12.90;99.90
50013;DHT22;35901;48.694;9.476;2024-01-25T11:34:23;13.40;99.90
50013;DHT22;35901;48.694;9.476;2024-01-25T11:36:49;13.80;99.90
50013;DHT22;35901;48.694;9.476;2024-01-25T11:39:15;14.00;99.90
50013;DHT22;35901;48.694;9.476;2024-01-25T11:41:42;14.00;99.90
50013;DHT22;35901;48.694;9.476;2024-01-25T11:44:12;14.10;99.90
50013;DHT22;35901;48.694;9.476;2024-01-25T11:46:42;14.10;99.90
50013;DHT22;35901;48.694;9.476;2024-01-25T11:49:07;14.30;99.90
50013;DHT22;35901;48.694;9.476;2024-01-25T11:51:33;14.10;99.50
50013;DHT22;35901;48.694;9.476;2024-01-25T11:53:59;13.70;99.90
50013;DHT22;35901;48.694;9.476;2024-01-25T11:56:31;13.40;99.90
50013;DHT22;35901;48.694;9.476;2024-01-25T11:58:58;13.30;99.90
50013;DHT22;35901;48.694;9.476;2024-01-25T12:01:25;13.30;99.90
50013;DHT22;35901;48.694;9.476;2024-01-25T12:03:51;13.30;99.90
50013;DHT22;35901;48.694;9.476;2024-01-25T12:06:17;13.20;99.90
50013;DHT22;35901;48.694;9.476;2024-01-25T12:08:44;13.00;99.90
50013;DHT22;35901;48.694;9.476;2024-01-25T12:11:11;12.90;99.90
50013;DHT22;35901;48.694;9.476;2024-01-25T12:13:41;12.90;99.90
50013;DHT22;35901;48.694;9.476;2024-01-25T12:16:08;13.00;99.90
50013;DHT22;35901;48.694;9.476;2024-01-25T12:18:34;13.00;99.90
50013;DHT22;35901;48.694;9.476;2024-01-25T12:21:03;13.10;99.90
50013;DHT22;35901;48.694;9.476;2024-01-25T12:23:39;12.90;99.90
50013;DHT22;35901;48.694;9.476;2024-01-25T12:26:09;12.40;99.90
50013;DHT22;35901;48.694;9.476;2024-01-25T12:28:37;12.10;99.90
50013;DHT22;35901;48.694;9.476;2024-01-25T12:31:04;12.30;99.90
50013;DHT22;35901;48.694;9.476;2024-01-25T12:33:31;12.60;99.90
50013;DHT22;35901;48.694;9.476;2024-01-25T12:35:58;12.60;99.90
50013;DHT22;35901;48.694;9.476;2024-01-25T12:38:24;12.60;99.90
50013;DHT22;35901;48.694;9.476;2024-01-25T12:40:51;12.40;99.90
50013;DHT22;35901;48.694;9.476;2024-01-25T12:43:18;12.20;99.90
50013;DHT22;35901;48.694;9.476;2024-01-25T12:45:44;12.00;99.90
50013;DHT22;35901;48.694;9.476;2024-01-25T12:48:10;11.80;99.90
50013;DHT22;35901;48.694;9.476;2024-01-25T12:50:36;11.60;99.90
50013;DHT22;35901;48.694;9.476;2024-01-25T12:53:03;11.40;99.90
50013;DHT22;35901;48.694;9.476;2024-01-25T12:55:30;11.20;99.90
50013;DHT22;35901;48.694;9.476;2024-01-25T12:57:57;11.20;99.90
50013;DHT22;35901;48.694;9.476;2024-01-25T13:00:23;11.40;99.90
50013;DHT22;35901;48.694;9.476;2024-01-25T13:02:50;11.50;99.90
50013;DHT22;35901;48.694;9.476;2024-01-25T13:05:16;11.50;99.90
50013;DHT22;35901;48.694;9.476;2024-01-25T13:07:42;11.50;99.90
50013;DHT22;35901;48.694;9.476;2024-01-25T13:10:09;11.40;99.90
50013;DHT22;35901;48.694;9.476;2024-01-25T13:12:39;11.10;99.90
50013;DHT22;35901;48.694;9.476;2024-01-25T13:15:06;10.90;99.90
50013;DHT22;35901;48.694;9.476;2024-01-25T13:17:33;10.80;99.90
50013;DHT22;35901;48.694;9.476;2024-01-25T13:19:59;10.60;99.90
50013;DHT22;35901;48.694;9.476;2024-01-25T13:22:25;10.50;99.90
50013;DHT22;35901;48.694;9.476;2024-01-25T13:24:51;10.40;99.90
50013;DHT22;35901;48.694;9.476;2024-01-25T13:27:17;10.30;99.90
50013;DHT22;35901;48.694;9.476;2024-01-25T13:29:43;10.30;99.90
50013;DHT22;35901;48.694;9.476;2024-01-25T13:32:08;10.30;99.90
50013;DHT22;35901;48.694;9.476;2024-01-25T13:34:34;10.40;99.90
50013;DHT22;35901;48.694;9.476;2024-01-25T13:37:00;10.50;99.90
50013;DHT22;35901;48.694;9.476;2024-01-25T13:39:25;10.30;99.90
50013;DHT22;35901;48.694;9.476;2024-01-25T13:41:51;10.20;99.90
50013;DHT22;35901;48.694;9.476;2024-01-25T13:44:17;10.20;99.90
50013;DHT22;35901;48.694;9.476;2024-01-25T13:46:43;10.10;99.90
50013;DHT22;35901;48.694;9.476;2024-01-25T13:49:08;10.00;99.90
50013;DHT22;35901;48.694;9.476;2024-01-25T13:51:35;9.90;99.90
50013;DHT22;35901;48.694;9.476;2024-01-25T13:54:01;9.80;99.90
50013;DHT22;35901;48.694;9.476;2024-01-25T13:56:27;9.90;99.90
50013;DHT22;35901;48.694;9.476;2024-01-25T13:58:52;10.00;99.90
50013;DHT22;35901;48.694;9.476;2024-01-25T14:01:19;10.00;99.90
50013;DHT22;35901;48.694;9.476;2024-01-25T14:03:45;10.00;99.90
50013;DHT22;35901;48.694;9.476;2024-01-25T14:06:10;9.90;99.90
50013;DHT22;35901;48.694;9.476;2024-01-25T14:08:36;9.90;99.90
50013;DHT22;35901;48.694;9.476;2024-01-25T14:11:03;9.80;99.90
50013;DHT22;35901;48.694;9.476;2024-01-25T14:13:33;9.70;99.90
50013;DHT22;35901;48.694;9.476;2024-01-25T14:16:13;9.70;99.90
50013;DHT22;35901;48.694;9.476;2024-01-25T14:18:43;9.70;99.90
50013;DHT22;35901;48.694;9.476;2024-01-25T14:21:11;9.70;99.90
50013;DHT22;35901;48.694;9.476;2024-01-25T14:23:37;9.80;99.90
50013;DHT22;35901;48.694;9.476;2024-01-25T14:26:03;9.90;99.90
50013;DHT22;35901;48.694;9.476;2024-01-25T14:28:28;10.00;99.90
50013;DHT22;35901;48.694;9.476;2024-01-25T14:30:54;10.00;99.90
50013;DHT22;35901;48.694;9.476;2024-01-25T14:33:20;9.90;99.90
50013;DHT22;35901;48.694;9.476;2024-01-25T14:35:55;10.00;99.90
50013;DHT22;35901;48.694;9.476;2024-01-25T14:38:22;10.20;99.90
50013;DHT22;35901;48.694;9.476;2024-01-25T14:40:48;10.20;99.90
50013;DHT22;35901;48.694;9.476;2024-01-25T14:43:14;10.10;99.90
50013;DHT22;35901;48.694;9.476;2024-01-25T14:45:48;10.10;99.90
50013;DHT22;35901;48.694;9.476;2024-01-25T14:48:29;10.00;99.90
50013;DHT22;35901;48.694;9.476;2024-01-25T14:50:55;10.00;99.90
50013;DHT22;35901;48.694;9.476;2024-01-25T14:53:20;9.90;99.90
50013;DHT22;35901;48.694;9.476;2024-01-25T14:55:46;9.80;99.90
50013;DHT22;35901;48.694;9.476;2024-01-25T14:58:12;9.80;99.90
50013;DHT22;35901;48.694;9.476;2024-01-25T15:00:40;9.70;99.90
50013;DHT22;35901;48.694;9.476;2024-01-25T15:03:06;9.70;99.90
50013;DHT22;35901;48.694;9.476;2024-01-25T15:05:31;9.60;99.90
50013;DHT22;35901;48.694;9.476;2024-01-25T15:07:57;9.60;99.90
50013;DHT22;35901;48.694;9.476;2024-01-25T15:10:23;9.50;99.90
50013;DHT22;35901;48.694;9.476;2024-01-25T15:12:48;9.50;99.90
50013;DHT22;35901;48.694;9.476;2024-01-25T15:15:18;9.40;99.90
50013;DHT22;35901;48.694;9.476;2024-01-25T15:17:50;9.40;99.90
50013;DHT22;35901;48.694;9.476;2024-01-25T15:20:16;9.30;99.90
50013;DHT22;35901;48.694;9.476;2024-01-25T15:22:42;9.20;99.90
50013;DHT22;35901;48.694;9.476;2024-01-25T15:25:08;9.10;99.90
50013;DHT22;35901;48.694;9.476;2024-01-25T15:27:34;9.10;99.90
50013;DHT22;35901;48.694;9.476;2024-01-25T15:30:07;9.20;99.90
50013;DHT22;35901;48.694;9.476;2024-01-25T15:32:37;9.30;99.90
50013;DHT22;35901;48.694;9.476;2024-01-25T15:35:03;9.30;99.90
50013;DHT22;35901;48.694;9.476;2024-01-25T15:37:29;9.20;99.90
50013;DHT22;35901;48.694;9.476;2024-01-25T15:40:04;9.30;99.90
50013;DHT22;35901;48.694;9.476;2024-01-25T15:42:38;9.20;99.90
50013;DHT22;35901;48.694;9.476;2024-01-25T15:45:05;9.20;99.90